Time;durP1;ratioP1;P1;durP2;ratioP2;P2;SDS_P1;SDS_P2;PMS_P1;PMS_P2;Temp;Humidity;BMP_temperature;BMP_pressure;BME280_temperature;BME280_humidity;BME280_pressure;Samples;Min_cycle;Max_cycle;Signal;HPM_P1;HPM_P2
2024/01/08 00:00:05;;;;;;;17.90;10.02;;;;;;;1.93;100.00;99514.59;5075018;28;20047;-45
2024/01/08 00:02:36;;;;;;;20.08;11.30;;;;;;;1.86;100.00;99517.50;5076149;28;20052;-43
2024/01/08 00:05:05;;;;;;;18.65;10.35;;;;;;;1.57;100.00;99516.75;5075722;28;20109;-45
2024/01/08 00:07:34;;;;;;;20.17;11.50;;;;;;;1.61;100.00;99520.97;5075509;28;20057;-43
2024/01/08 00:10:03;;;;;;;20.23;10.88;;;;;;;1.63;100.00;99526.19;5075185;28;20048;-45
2024/01/08 00:12:31;;;;;;;20.73;11.13;;;;;;;1.54;100.00;99534.38;5074790;28;20049;-46
2024/01/08 00:14:59;;;;;;;23.77;11.48;;;;;;;1.57;100.00;99531.66;5073503;28;20044;-43
2024/01/08 00:17:27;;;;;;;20.70;11.40;;;;;;;1.40;100.00;99534.88;5074722;28;20109;-44
2024/01/08 00:19:57;;;;;;;19.52;11.52;;;;;;;1.56;100.00;99535.22;5078877;28;20082;-45
2024/01/08 00:22:26;;;;;;;22.05;11.68;;;;;;;1.46;100.00;99537.31;5079491;28;20045;-44
2024/01/08 00:24:55;;;;;;;20.10;11.68;;;;;;;1.64;100.00;99539.28;5083343;28;20055;-45
2024/01/08 00:27:23;;;;;;;22.27;11.68;;;;;;;1.69;100.00;99541.75;5083927;28;20071;-49
2024/01/08 00:29:52;;;;;;;21.88;11.55;;;;;;;1.61;100.00;99544.63;5083005;28;20056;-44
2024/01/08 00:32:20;;;;;;;23.90;11.60;;;;;;;1.42;100.00;99548.81;5083379;28;20055;-46
2024/01/08 00:34:48;;;;;;;23.50;12.45;;;;;;;1.39;100.00;99548.94;5075317;28;20041;-44
2024/01/08 00:37:18;;;;;;;22.13;12.02;;;;;;;1.46;100.00;99555.69;5073456;28;20052;-44
2024/01/08 00:39:46;;;;;;;22.13;12.13;;;;;;;1.43;100.00;99559.28;5073308;28;20041;-44
2024/01/08 00:42:15;;;;;;;19.67;12.05;;;;;;;1.47;100.00;99552.16;5073362;28;20052;-43
2024/01/08 00:44:43;;;;;;;24.05;12.25;;;;;;;1.29;100.00;99558.03;5073349;28;20045;-45
2024/01/08 00:47:11;;;;;;;24.13;12.23;;;;;;;1.43;100.00;99568.94;5073639;28;20360;-45
2024/01/08 00:49:40;;;;;;;28.77;12.75;;;;;;;1.28;100.00;99567.69;5073300;28;20045;-44
2024/01/08 00:52:08;;;;;;;23.88;13.13;;;;;;;1.11;100.00;99565.59;5073235;28;20044;-48
2024/01/08 00:54:38;;;;;;;23.98;12.07;;;;;;;1.15;100.00;99564.59;5073101;28;20040;-45
2024/01/08 00:57:06;;;;;;;21.90;12.20;;;;;;;1.31;100.00;99578.09;5072762;28;20055;-45
2024/01/08 00:59:34;;;;;;;23.00;12.23;;;;;;;1.12;100.00;99572.56;5073002;28;20048;-45
2024/01/08 01:02:03;;;;;;;21.20;10.90;;;;;;;1.03;100.00;99577.25;5072583;28;20044;-45
2024/01/08 01:04:32;;;;;;;21.75;12.32;;;;;;;0.90;100.00;99582.06;5071644;28;20055;-42
2024/01/08 01:07:00;;;;;;;25.00;12.68;;;;;;;0.83;100.00;99578.75;5072603;28;20508;-43
2024/01/08 01:09:29;;;;;;;22.52;12.63;;;;;;;1.09;100.00;99577.94;5072574;28;20145;-44
2024/01/08 01:11:58;;;;;;;23.02;12.55;;;;;;;0.99;100.00;99587.03;5072394;28;20044;-43
2024/01/08 01:14:27;;;;;;;24.30;12.65;;;;;;;0.85;100.00;99581.31;5072622;28;20076;-43
2024/01/08 01:16:55;;;;;;;23.35;12.88;;;;;;;0.98;100.00;99594.94;5072281;28;20517;-42
2024/01/08 01:19:23;;;;;;;23.45;12.50;;;;;;;0.97;100.00;99583.59;5072538;28;20512;-45
2024/01/08 01:21:53;;;;;;;22.20;12.73;;;;;;;0.97;100.00;99580.97;5072221;28;20435;-44
2024/01/08 01:24:21;;;;;;;25.50;12.80;;;;;;;0.93;100.00;99589.81;5072177;28;20050;-44
2024/01/08 01:26:49;;;;;;;23.50;13.02;;;;;;;0.88;100.00;99589.13;5071270;28;20118;-45
2024/01/08 01:29:19;;;;;;;23.23;12.75;;;;;;;0.76;100.00;99600.00;5072304;28;20047;-44
2024/01/08 01:31:47;;;;;;;23.20;12.88;;;;;;;0.53;100.00;99596.31;5072352;28;20051;-44
2024/01/08 01:34:17;;;;;;;25.30;13.55;;;;;;;0.70;100.00;99597.56;5072307;28;20123;-43
2024/01/08 01:36:47;;;;;;;24.48;13.85;;;;;;;0.54;100.00;99608.50;5071950;28;20109;-43
2024/01/08 01:39:15;;;;;;;23.90;13.25;;;;;;;0.69;100.00;99601.97;5071907;28;20501;-48
2024/01/08 01:41:43;;;;;;;24.30;13.55;;;;;;;0.60;100.00;99593.50;5071848;28;20497;-44
2024/01/08 01:44:12;;;;;;;27.73;13.63;;;;;;;0.70;100.00;99594.94;5072043;28;20055;-43
2024/01/08 01:46:45;;;;;;;24.58;12.95;;;;;;;0.80;100.00;99597.25;5071887;28;20517;-43
2024/01/08 01:49:20;;;;;;;23.85;13.40;;;;;;;0.61;100.00;99596.06;5071640;28;20502;-43
2024/01/08 01:51:50;;;;;;;27.25;14.32;;;;;;;0.72;100.00;99593.13;5071606;28;20040;-43
2024/01/08 01:54:26;;;;;;;26.23;13.50;;;;;;;0.81;100.00;99603.34;5072091;28;20515;-43
2024/01/08 01:56:59;;;;;;;25.00;13.15;;;;;;;0.92;100.00;99585.50;5071593;28;20044;-43
2024/01/08 01:59:28;;;;;;;22.63;12.55;;;;;;;0.86;100.00;99590.91;5071704;28;20073;-43
2024/01/08 02:02:00;;;;;;;25.52;13.43;;;;;;;0.83;100.00;99601.53;5071471;28;20052;-44
2024/01/08 02:04:30;;;;;;;23.17;12.45;;;;;;;0.93;100.00;99596.84;5071871;28;20071;-44
2024/01/08 02:07:00;;;;;;;25.98;13.38;;;;;;;0.90;100.00;99596.94;5071512;28;20575;-44
2024/01/08 02:09:29;;;;;;;24.52;12.82;;;;;;;0.68;100.00;99597.63;5071648;28;20093;-43
2024/01/08 02:11:57;;;;;;;21.55;11.88;;;;;;;0.89;100.00;99606.59;5071757;28;20051;-44
2024/01/08 02:14:26;;;;;;;23.30;12.45;;;;;;;0.82;100.00;99605.91;5071376;28;20052;-44
2024/01/08 02:16:54;;;;;;;24.05;13.07;;;;;;;0.76;100.00;99613.13;5071322;28;20048;-44
2024/01/08 02:19:24;;;;;;;25.58;12.65;;;;;;;0.42;100.00;99616.75;5071388;28;20045;-44
2024/01/08 02:21:53;;;;;;;23.23;12.23;;;;;;;0.62;100.00;99616.16;5071475;28;20048;-43
2024/01/08 02:24:23;;;;;;;26.67;12.45;;;;;;;0.79;100.00;99618.28;5071314;28;20055;-44
2024/01/08 02:26:51;;;;;;;21.45;12.88;;;;;;;0.53;100.00;99617.28;5071262;28;20482;-44
2024/01/08 02:29:21;;;;;;;20.67;12.00;;;;;;;0.62;100.00;99618.78;5071316;28;20057;-44
2024/01/08 02:31:49;;;;;;;21.85;12.18;;;;;;;0.77;100.00;99623.59;5071671;28;20489;-44
2024/01/08 02:34:18;;;;;;;24.02;12.77;;;;;;;0.76;100.00;99621.84;5071707;28;20094;-43
2024/01/08 02:36:46;;;;;;;20.15;12.18;;;;;;;0.79;100.00;99626.16;5070989;28;20133;-44
2024/01/08 02:39:15;;;;;;;23.05;12.77;;;;;;;0.84;100.00;99629.50;5071344;28;20045;-45
2024/01/08 02:41:44;;;;;;;25.42;13.43;;;;;;;0.62;100.00;99625.81;5071089;28;20110;-44
2024/01/08 02:44:13;;;;;;;24.52;12.95;;;;;;;0.81;100.00;99632.22;5071311;28;20191;-43
2024/01/08 02:46:41;;;;;;;23.13;13.43;;;;;;;0.70;100.00;99634.31;5071282;28;20048;-43
2024/01/08 02:49:10;;;;;;;23.05;13.43;;;;;;;0.52;100.00;99628.69;5071339;28;20480;-42
2024/01/08 02:51:38;;;;;;;27.23;15.20;;;;;;;0.69;100.00;99640.47;5071297;28;20491;-43
2024/01/08 02:54:07;;;;;;;23.80;13.43;;;;;;;0.79;100.00;99640.16;5070994;28;20049;-43
2024/01/08 02:56:35;;;;;;;26.30;14.02;;;;;;;0.82;100.00;99641.81;5071200;28;20045;-42
2024/01/08 02:59:06;;;;;;;20.48;12.52;;;;;;;0.76;100.00;99634.97;5071118;28;20079;-43
2024/01/08 03:01:36;;;;;;;23.05;12.27;;;;;;;0.84;100.00;99650.50;5071078;28;20083;-46
2024/01/08 03:04:04;;;;;;;24.80;12.77;;;;;;;0.57;100.00;99642.53;5071149;28;20040;-43
2024/01/08 03:06:33;;;;;;;25.38;13.57;;;;;;;0.59;100.00;99639.03;5070691;28;20144;-43
2024/01/08 03:09:01;;;;;;;30.63;14.60;;;;;;;0.60;100.00;99646.00;5070750;28;20508;-44
2024/01/08 03:11:30;;;;;;;26.20;14.02;;;;;;;0.61;100.00;99647.72;5070805;28;20490;-43
2024/01/08 03:13:58;;;;;;;29.05;13.82;;;;;;;0.52;100.00;99656.72;5071035;28;20072;-43
2024/01/08 03:16:28;;;;;;;24.50;12.38;;;;;;;0.52;100.00;99649.69;5070820;28;20109;-43
2024/01/08 03:18:56;;;;;;;22.15;12.52;;;;;;;0.66;100.00;99661.53;5070887;28;20521;-42
2024/01/08 03:21:25;;;;;;;22.05;12.98;;;;;;;0.52;100.00;99660.19;5070880;28;20053;-42
2024/01/08 03:23:53;;;;;;;24.27;13.10;;;;;;;0.55;100.00;99665.34;5070937;28;20383;-45
2024/01/08 03:26:22;;;;;;;23.75;13.18;;;;;;;0.67;100.00;99665.88;5070841;28;20052;-42
2024/01/08 03:28:50;;;;;;;23.20;12.55;;;;;;;0.78;100.00;99679.59;5070852;28;20129;-45
2024/01/08 03:31:18;;;;;;;25.40;13.23;;;;;;;0.88;100.00;99662.66;5070704;28;20131;-44
2024/01/08 03:33:49;;;;;;;25.25;12.60;;;;;;;1.04;100.00;99674.38;5070692;28;20136;-43
2024/01/08 03:36:17;;;;;;;22.60;12.38;;;;;;;0.92;100.00;99668.66;5071020;28;20056;-43
2024/01/08 03:38:45;;;;;;;23.88;12.45;;;;;;;0.83;100.00;99675.03;5070435;28;20187;-44
2024/01/08 03:41:14;;;;;;;23.40;12.45;;;;;;;0.79;100.00;99684.78;5070684;28;20045;-45
2024/01/08 03:43:43;;;;;;;23.85;12.48;;;;;;;1.08;100.00;99694.41;5070442;28;20076;-44
2024/01/08 03:46:12;;;;;;;22.73;12.82;;;;;;;0.97;100.00;99699.13;5070560;28;20649;-43
2024/01/08 03:48:40;;;;;;;19.35;11.02;;;;;;;1.02;100.00;99696.38;5070158;28;20131;-44
2024/01/08 03:51:10;;;;;;;24.80;11.48;;;;;;;0.89;100.00;99701.13;5074045;28;20044;-43
2024/01/08 03:53:38;;;;;;;21.73;11.35;;;;;;;0.72;100.00;99706.00;5074102;28;20044;-44
2024/01/08 03:56:07;;;;;;;20.48;11.40;;;;;;;0.78;100.00;99703.22;5073728;28;20517;-44
2024/01/08 03:58:37;;;;;;;22.85;12.75;;;;;;;0.54;100.00;99708.25;5073879;28;20048;-44
2024/01/08 04:01:06;;;;;;;23.33;12.43;;;;;;;0.63;100.00;99709.75;5073670;28;20413;-43
2024/01/08 04:03:34;;;;;;;23.58;12.23;;;;;;;0.62;100.00;99709.78;5073853;28;20044;-44
2024/01/08 04:06:02;;;;;;;24.70;12.15;;;;;;;0.71;100.00;99714.78;5073922;28;20402;-43
2024/01/08 04:08:32;;;;;;;28.58;13.90;;;;;;;0.45;100.00;99712.88;5073838;28;20131;-42
2024/01/08 04:11:01;;;;;;;25.23;12.50;;;;;;;0.52;100.00;99714.44;5073815;28;20076;-42
2024/01/08 04:13:29;;;;;;;25.83;12.77;;;;;;;0.40;100.00;99707.78;5073396;28;20049;-44
2024/01/08 04:15:57;;;;;;;26.80;12.52;;;;;;;0.54;100.00;99715.25;5073819;28;20060;-43
2024/01/08 04:18:26;;;;;;;25.20;12.98;;;;;;;0.56;100.00;99719.53;5073199;28;20079;-44
2024/01/08 04:20:54;;;;;;;23.02;12.15;;;;;;;0.75;100.00;99729.53;5073516;28;20056;-44
2024/01/08 04:23:22;;;;;;;25.55;13.32;;;;;;;0.62;100.00;99722.91;5073405;28;20075;-42
2024/01/08 04:25:52;;;;;;;27.27;13.00;;;;;;;0.54;100.00;99716.13;5073356;28;20699;-43
2024/01/08 04:28:21;;;;;;;26.90;13.20;;;;;;;0.72;100.00;99724.38;5073279;28;20052;-43
2024/01/08 04:30:49;;;;;;;23.88;13.93;;;;;;;0.75;100.00;99735.63;5073596;28;20461;-43
2024/01/08 04:33:18;;;;;;;26.48;13.30;;;;;;;0.90;100.00;99736.97;5073423;28;20051;-44
2024/01/08 04:35:46;;;;;;;24.33;12.88;;;;;;;0.98;100.00;99737.63;5073459;28;20052;-44
2024/01/08 04:38:14;;;;;;;25.58;12.70;;;;;;;0.84;100.00;99740.63;5073371;28;20048;-44
2024/01/08 04:40:42;;;;;;;23.25;13.18;;;;;;;0.90;100.00;99744.88;5072935;28;20075;-44
2024/01/08 04:43:12;;;;;;;24.88;12.32;;;;;;;0.72;100.00;99742.75;5073329;28;20125;-42
2024/01/08 04:45:40;;;;;;;23.08;12.45;;;;;;;0.73;100.00;99752.34;5073200;28;20049;-44
2024/01/08 04:48:09;;;;;;;24.50;12.68;;;;;;;0.66;100.00;99753.41;5072886;28;20052;-42
2024/01/08 04:50:37;;;;;;;23.48;11.70;;;;;;;0.66;100.00;99763.91;5073008;28;20139;-43
2024/01/08 04:53:06;;;;;;;22.35;12.30;;;;;;;0.54;100.00;99752.00;5072807;28;20044;-44
2024/01/08 04:55:34;;;;;;;21.42;12.45;;;;;;;0.53;100.00;99761.63;5072800;28;20383;-43
2024/01/08 04:58:06;;;;;;;21.40;11.52;;;;;;;0.51;100.00;99763.44;5072948;28;20051;-43
2024/01/08 05:00:36;;;;;;;21.70;12.13;;;;;;;0.37;100.00;99762.94;5072661;28;20504;-44
2024/01/08 05:03:05;;;;;;;23.60;12.98;;;;;;;0.38;100.00;99769.03;5073028;28;20083;-43
2024/01/08 05:05:33;;;;;;;23.35;11.88;;;;;;;0.32;100.00;99777.94;5072732;28;20076;-43
2024/01/08 05:08:01;;;;;;;27.83;12.95;;;;;;;0.56;100.00;99777.28;5071809;28;20048;-43
2024/01/08 05:10:30;;;;;;;22.95;12.43;;;;;;;0.53;100.00;99776.53;5072697;28;20130;-44
2024/01/08 05:12:58;;;;;;;24.58;12.80;;;;;;;0.71;100.00;99780.41;5072499;28;20048;-43
2024/01/08 05:15:26;;;;;;;23.60;12.20;;;;;;;0.69;100.00;99784.84;5072461;28;20049;-42
2024/01/08 05:17:56;;;;;;;24.35;12.30;;;;;;;0.43;100.00;99786.41;5072164;28;20074;-43
2024/01/08 05:20:24;;;;;;;24.38;12.95;;;;;;;0.19;100.00;99789.63;5071976;28;20049;-43
2024/01/08 05:22:52;;;;;;;22.85;12.82;;;;;;;0.33;100.00;99794.56;5072452;28;20056;-44
2024/01/08 05:25:21;;;;;;;20.85;11.48;;;;;;;0.43;100.00;99798.66;5071983;28;20106;-43
2024/01/08 05:27:49;;;;;;;25.75;12.98;;;;;;;0.11;100.00;99796.88;5072103;28;20503;-43
2024/01/08 05:30:17;;;;;;;24.52;12.75;;;;;;;0.15;100.00;99799.34;5072126;28;20040;-44
2024/01/08 05:32:46;;;;;;;22.83;11.93;;;;;;;0.03;100.00;99809.31;5071811;28;20045;-43
2024/01/08 05:35:16;;;;;;;22.02;11.60;;;;;;;0.11;100.00;99812.59;5071771;28;20045;-45
2024/01/08 05:37:44;;;;;;;22.40;11.52;;;;;;;0.40;100.00;99814.50;5072049;28;20409;-44
2024/01/08 05:40:13;;;;;;;19.92;10.27;;;;;;;0.06;100.00;99819.72;5071975;28;20052;-41
2024/01/08 05:42:41;;;;;;;23.67;11.10;;;;;;;0.19;100.00;99823.75;5071745;28;20067;-43
2024/01/08 05:45:11;;;;;;;20.63;11.48;;;;;;;0.19;100.00;99837.75;5071680;28;20055;-43
2024/01/08 05:47:42;;;;;;;22.80;11.05;;;;;;;0.08;100.00;99842.38;5071320;28;20490;-43
2024/01/08 05:50:11;;;;;;;21.27;11.88;;;;;;;0.33;100.00;99837.38;5071549;28;20423;-43
2024/01/08 05:52:41;;;;;;;25.23;12.95;;;;;;;0.56;100.00;99842.03;5071269;28;20528;-45
2024/01/08 05:55:09;;;;;;;24.20;12.18;;;;;;;0.75;100.00;99847.66;5071326;28;20071;-43
2024/01/08 05:57:37;;;;;;;23.48;13.30;;;;;;;0.63;100.00;99856.75;5071329;28;20421;-44
2024/01/08 06:00:07;;;;;;;22.00;12.52;;;;;;;0.71;100.00;99853.91;5071366;28;20135;-43
2024/01/08 06:02:35;;;;;;;25.98;13.77;;;;;;;0.64;100.00;99853.22;5071329;28;20109;-43
2024/01/08 06:05:06;;;;;;;25.05;13.98;;;;;;;0.47;100.00;99851.00;5071341;28;20051;-43
2024/01/08 06:07:34;;;;;;;23.55;12.57;;;;;;;0.59;100.00;99857.72;5071495;28;20066;-43
2024/01/08 06:10:05;;;;;;;25.77;13.23;;;;;;;0.27;100.00;99866.38;5071189;28;20040;-43
2024/01/08 06:12:33;;;;;;;27.52;13.27;;;;;;;0.22;100.00;99858.66;5070342;28;20044;-44
2024/01/08 06:15:01;;;;;;;25.60;12.82;;;;;;;0.40;100.00;99859.09;5070522;28;20437;-44
2024/01/08 06:17:31;;;;;;;25.77;14.13;;;;;;;0.16;100.00;99869.28;5070770;28;20051;-44
2024/01/08 06:19:59;;;;;;;22.90;13.07;;;;;;;0.24;100.00;99874.34;5070792;28;20060;-42
2024/01/08 06:22:28;;;;;;;24.42;13.45;;;;;;;0.20;100.00;99876.19;5070946;28;20051;-44
2024/01/08 06:24:56;;;;;;;24.52;13.38;;;;;;;0.20;100.00;99877.94;5070759;28;20106;-45
2024/01/08 06:27:26;;;;;;;25.48;12.95;;;;;;;0.15;100.00;99880.66;5070789;28;20045;-43
2024/01/08 06:29:55;;;;;;;28.25;12.98;;;;;;;0.11;100.00;99900.00;5071069;28;20093;-43
2024/01/08 06:32:24;;;;;;;26.42;13.15;;;;;;;0.16;100.00;99892.88;5071169;28;20059;-43
2024/01/08 06:34:53;;;;;;;25.75;13.45;;;;;;;0.31;100.00;99899.53;5071488;28;20045;-42
2024/01/08 06:37:22;;;;;;;26.35;13.73;;;;;;;0.37;100.00;99902.00;5071226;28;20413;-44
2024/01/08 06:39:50;;;;;;;30.35;13.00;;;;;;;0.26;100.00;99907.50;5070880;28;20056;-44
2024/01/08 06:42:19;;;;;;;29.30;14.30;;;;;;;0.11;100.00;99912.25;5071264;28;20056;-46
2024/01/08 06:44:49;;;;;;;28.60;13.68;;;;;;;0.40;100.00;99912.44;5071114;28;20254;-44
2024/01/08 06:47:17;;;;;;;27.50;14.13;;;;;;;0.43;100.00;99922.84;5070966;28;20088;-43
2024/01/08 06:49:46;;;;;;;27.65;14.38;;;;;;;0.62;100.00;99919.78;5070834;28;20049;-43
2024/01/08 06:52:14;;;;;;;29.60;14.40;;;;;;;0.96;100.00;99923.25;5070872;28;20083;-44
2024/01/08 06:54:42;;;;;;;27.83;14.40;;;;;;;0.54;100.00;99930.47;5070578;28;20056;-43
2024/01/08 06:57:10;;;;;;;31.15;14.38;;;;;;;0.33;100.00;99931.84;5070802;28;20124;-42
2024/01/08 06:59:38;;;;;;;31.55;14.38;;;;;;;0.27;100.00;99942.47;5071055;28;20049;-42
2024/01/08 07:02:08;;;;;;;27.13;13.50;;;;;;;0.42;100.00;99941.25;5070633;28;20045;-45
2024/01/08 07:04:36;;;;;;;26.45;13.45;;;;;;;0.54;100.00;99947.06;5070701;28;20494;-43
2024/01/08 07:07:05;;;;;;;27.25;13.93;;;;;;;0.51;100.00;99947.16;5070397;28;20503;-43
2024/01/08 07:09:33;;;;;;;27.90;13.88;;;;;;;0.34;100.00;99948.44;5070673;28;20051;-44
2024/01/08 07:12:03;;;;;;;29.15;13.85;;;;;;;0.57;100.00;99957.47;5070234;28;20478;-43
2024/01/08 07:14:32;;;;;;;25.95;13.27;;;;;;;0.51;100.00;99962.03;5070686;28;20114;-42
2024/01/08 07:17:00;;;;;;;27.42;13.70;;;;;;;0.27;100.00;99955.59;5070461;28;20056;-48
2024/01/08 07:19:30;;;;;;;24.52;13.25;;;;;;;0.43;100.00;99970.09;5070202;28;20048;-42
2024/01/08 07:21:59;;;;;;;30.60;14.80;;;;;;;0.56;100.00;99974.13;5070720;28;20049;-42
2024/01/08 07:24:28;;;;;;;26.88;13.75;;;;;;;0.49;100.00;99975.19;5073392;28;20469;-43
2024/01/08 07:26:57;;;;;;;22.55;12.60;;;;;;;0.76;100.00;99978.03;5074124;28;20398;-42
2024/01/08 07:29:25;;;;;;;26.92;13.95;;;;;;;0.76;100.00;99978.03;5073852;28;20044;-43
2024/01/08 07:31:54;;;;;;;27.83;14.05;;;;;;;0.77;100.00;99980.66;5074169;28;20137;-42
2024/01/08 07:34:22;;;;;;;25.27;13.88;;;;;;;0.70;100.00;99979.06;5074199;28;20067;-42
2024/01/08 07:36:53;;;;;;;28.17;13.70;;;;;;;0.49;100.00;99985.69;5074303;28;20051;-42
2024/01/08 07:39:21;;;;;;;35.33;15.05;;;;;;;0.37;100.00;99996.44;5074166;28;20135;-42
2024/01/08 07:41:50;;;;;;;29.38;14.30;;;;;;;0.12;100.00;99998.78;5073964;28;20102;-43
2024/01/08 07:44:18;;;;;;;27.67;14.45;;;;;;;0.36;100.00;100002.59;5074425;28;20076;-43
2024/01/08 07:46:49;;;;;;;31.00;14.68;;;;;;;0.53;100.00;100005.72;5073893;28;20045;-42
2024/01/08 07:49:17;;;;;;;31.83;14.90;;;;;;;0.38;100.00;100010.44;5074063;28;20080;-44
2024/01/08 07:51:46;;;;;;;31.25;14.80;;;;;;;0.33;100.00;100026.28;5073852;28;20048;-43
2024/01/08 07:54:15;;;;;;;66.45;30.88;;;;;;;0.42;100.00;100015.59;5073840;28;20102;-43
2024/01/08 07:56:44;;;;;;;32.53;15.77;;;;;;;0.35;100.00;100027.13;5073736;28;20465;-43
2024/01/08 07:59:27;;;;;;;35.60;16.27;;;;;;;0.37;100.00;100033.19;5073776;28;20434;-43
2024/01/08 08:01:55;;;;;;;45.08;20.20;;;;;;;0.33;100.00;100026.28;5073477;28;20525;-44
2024/01/08 08:04:24;;;;;;;32.53;16.67;;;;;;;0.25;100.00;100033.47;5073684;28;20055;-43
2024/01/08 08:06:53;;;;;;;30.75;15.10;;;;;;;0.39;100.00;100038.44;5073448;28;20343;-42
2024/01/08 08:09:22;;;;;;;28.48;14.57;;;;;;;0.32;100.00;100045.56;5073442;28;20083;-43
2024/01/08 08:11:50;;;;;;;27.48;14.45;;;;;;;0.37;100.00;100054.19;5073511;28;20102;-43
2024/01/08 08:14:18;;;;;;;31.50;14.82;;;;;;;0.19;100.00;100049.31;5073317;28;20055;-43
2024/01/08 08:16:47;;;;;;;28.25;14.05;;;;;;;0.20;100.00;100056.31;5073605;28;20052;-43
2024/01/08 08:19:15;;;;;;;31.48;13.88;;;;;;;0.34;100.00;100054.25;5073578;28;20080;-43
2024/01/08 08:21:44;;;;;;;25.45;14.52;;;;;;;0.45;100.00;100059.25;5067769;28;20481;-44
2024/01/08 08:24:12;;;;;;;28.77;14.30;;;;;;;0.53;100.00;100063.44;5054876;28;20047;-42
2024/01/08 08:26:42;;;;;;;32.38;15.13;;;;;;;0.37;100.00;100069.91;5053052;28;20081;-44
2024/01/08 08:29:11;;;;;;;27.77;14.57;;;;;;;0.36;100.00;100068.19;5053172;28;20107;-44
2024/01/08 08:31:43;;;;;;;31.60;15.48;;;;;;;0.30;100.00;100081.47;5053046;28;20049;-43
2024/01/08 08:34:11;;;;;;;28.30;14.98;;;;;;;0.32;100.00;100079.66;5052944;28;20049;-43
2024/01/08 08:36:41;;;;;;;28.73;14.68;;;;;;;0.35;100.00;100078.72;5065882;28;20044;-42
2024/01/08 08:39:09;;;;;;;28.05;14.00;;;;;;;0.11;100.00;100073.13;5072609;28;20048;-44
2024/01/08 08:41:37;;;;;;;33.03;14.30;;;;;;;0.11;100.00;100077.50;5072796;28;20060;-42
2024/01/08 08:44:08;;;;;;;24.00;12.88;;;;;;;0.09;100.00;100079.25;5072709;28;20102;-44
2024/01/08 08:46:37;;;;;;;23.67;12.30;;;;;;;0.10;100.00;100078.41;5071945;28;20049;-45
2024/01/08 08:49:06;;;;;;;23.45;12.95;;;;;;;0.26;100.00;100083.28;5071845;28;20045;-43
2024/01/08 08:51:35;;;;;;;24.85;13.45;;;;;;;0.25;100.00;100083.31;5065271;28;20524;-44
2024/01/08 08:54:04;;;;;;;26.27;13.85;;;;;;;0.40;100.00;100090.00;5059933;28;20549;-43
2024/01/08 08:56:32;;;;;;;25.73;13.23;;;;;;;0.31;100.00;100083.19;5052305;28;20049;-44
2024/01/08 08:59:01;;;;;;;24.83;12.57;;;;;;;0.35;100.00;100092.72;5052062;28;20068;-42
2024/01/08 09:01:31;;;;;;;22.58;11.73;;;;;;;0.48;100.00;100083.69;5052137;28;20353;-43
2024/01/08 09:04:00;;;;;;;28.30;12.63;;;;;;;0.49;100.00;100090.66;5052520;28;20045;-41
2024/01/08 09:06:30;;;;;;;30.15;12.10;;;;;;;0.48;100.00;100094.19;5051975;28;20098;-44
2024/01/08 09:08:58;;;;;;;25.33;11.95;;;;;;;0.53;100.00;100094.94;5051907;28;20106;-43
2024/01/08 09:11:28;;;;;;;22.58;11.80;;;;;;;0.67;100.00;100094.63;5051730;28;20473;-43
2024/01/08 09:13:56;;;;;;;25.52;13.07;;;;;;;0.60;100.00;100100.06;5052061;28;20406;-43
2024/01/08 09:16:26;;;;;;;20.83;10.93;;;;;;;0.46;100.00;100103.84;5051441;28;20512;-42
2024/01/08 09:18:56;;;;;;;24.23;11.77;;;;;;;0.52;100.00;100106.34;5052140;28;20084;-43
2024/01/08 09:21:24;;;;;;;23.92;12.95;;;;;;;0.31;100.00;100113.81;5052024;28;20073;-42
2024/01/08 09:23:53;;;;;;;24.67;12.48;;;;;;;0.55;100.00;100111.50;5051989;28;20049;-42
2024/01/08 09:26:22;;;;;;;24.92;12.20;;;;;;;0.53;100.00;100113.31;5051892;28;20122;-43
2024/01/08 09:28:50;;;;;;;24.55;12.10;;;;;;;0.64;100.00;100115.69;5051844;28;20410;-42
2024/01/08 09:31:20;;;;;;;24.80;11.95;;;;;;;0.97;100.00;100114.09;5052073;28;20067;-43
2024/01/08 09:33:51;;;;;;;26.58;12.75;;;;;;;1.14;100.00;100117.16;5053841;28;20041;-46
2024/01/08 09:36:21;;;;;;;26.50;13.35;;;;;;;1.34;100.00;100118.44;5053378;28;20139;-45
2024/01/08 09:38:50;;;;;;;27.45;13.45;;;;;;;1.47;100.00;100114.63;5076447;28;20044;-44
2024/01/08 09:41:18;;;;;;;25.98;12.90;;;;;;;1.45;100.00;100111.19;5072002;28;20463;-43
2024/01/08 09:43:52;;;;;;;26.67;12.23;;;;;;;1.50;100.00;100109.28;5071247;28;20135;-51
2024/01/08 09:46:27;;;;;;;25.52;12.77;;;;;;;1.44;100.00;100112.06;5071849;28;20049;-43
2024/01/08 09:48:55;;;;;;;24.15;12.45;;;;;;;1.18;100.00;100106.59;5072119;28;20047;-46
2024/01/08 09:51:27;;;;;;;28.55;12.88;;;;;;;1.26;100.00;100104.66;5074534;28;20040;-49
2024/01/08 09:54:00;;;;;;;24.98;12.32;;;;;;;1.30;100.00;100116.81;5074362;28;20425;-45
2024/01/08 09:56:30;;;;;;;22.67;11.45;;;;;;;1.34;100.00;100102.69;5074228;28;20051;-45
2024/01/08 09:58:59;;;;;;;21.35;12.00;;;;;;;1.29;100.00;100109.84;5073513;28;20051;-44
2024/01/08 10:01:27;;;;;;;22.45;11.50;;;;;;;1.21;100.00;100106.53;5072050;28;20525;-44
2024/01/08 10:03:56;;;;;;;22.02;11.52;;;;;;;1.19;100.00;100109.19;5072109;28;20049;-44
2024/01/08 10:06:25;;;;;;;21.63;12.15;;;;;;;1.29;100.00;100102.81;5072786;28;20127;-45
2024/01/08 10:08:54;;;;;;;21.90;11.70;;;;;;;1.30;100.00;100109.78;5071868;28;20051;-45
2024/01/08 10:11:23;;;;;;;24.33;11.25;;;;;;;1.47;100.00;100101.50;5071956;28;20077;-45
2024/01/08 10:13:51;;;;;;;21.50;11.25;;;;;;;1.44;100.00;100104.19;5071730;28;20040;-46
2024/01/08 10:16:20;;;;;;;23.38;11.85;;;;;;;1.31;100.00;100114.13;5071492;28;20055;-45
2024/01/08 10:18:48;;;;;;;23.17;11.57;;;;;;;1.42;100.00;100105.97;5071457;28;20048;-43
2024/01/08 10:21:17;;;;;;;21.38;11.23;;;;;;;1.28;100.00;100113.38;5071130;28;20044;-44
2024/01/08 10:23:48;;;;;;;31.88;12.82;;;;;;;1.50;100.00;100095.28;5071501;28;20048;-45
2024/01/08 10:26:17;;;;;;;26.83;12.45;;;;;;;1.30;100.00;100112.41;5071190;28;20058;-44
2024/01/08 10:28:46;;;;;;;23.45;10.93;;;;;;;1.35;100.00;100104.41;5071262;28;20061;-44
2024/01/08 10:31:15;;;;;;;25.23;10.82;;;;;;;1.40;100.00;100099.91;5070956;28;20041;-44
2024/01/08 10:33:45;;;;;;;23.85;11.27;;;;;;;1.47;100.00;100109.38;5070999;28;20102;-46
2024/01/08 10:36:15;;;;;;;22.35;10.88;;;;;;;1.32;100.00;100115.00;5070744;28;20093;-45
2024/01/08 10:38:44;;;;;;;24.27;12.05;;;;;;;1.48;100.00;100104.97;5071171;28;20131;-45
2024/01/08 10:41:14;;;;;;;28.73;12.30;;;;;;;1.72;100.00;100113.09;5070836;28;20127;-46
2024/01/08 10:43:43;;;;;;;24.02;11.38;;;;;;;1.62;100.00;100108.09;5070882;28;20045;-44
2024/01/08 10:46:12;;;;;;;22.45;11.07;;;;;;;1.64;100.00;100103.66;5071121;28;20045;-46
2024/01/08 10:48:41;;;;;;;21.10;11.43;;;;;;;1.66;100.00;100105.38;5071056;28;20055;-45
2024/01/08 10:51:11;;;;;;;21.73;10.73;;;;;;;1.87;100.00;100108.34;5071099;28;20413;-46
2024/01/08 10:53:45;;;;;;;21.40;11.15;;;;;;;1.89;100.00;100098.63;5071081;28;20327;-48
2024/01/08 10:56:17;;;;;;;20.10;10.68;;;;;;;1.97;100.00;100104.53;5070994;28;20045;-44
2024/01/08 10:58:53;;;;;;;21.08;11.48;;;;;;;2.03;100.00;100109.66;5072634;28;20461;-44
2024/01/08 11:01:22;;;;;;;23.40;11.30;;;;;;;1.75;100.00;100122.69;5074817;28;20459;-44
2024/01/08 11:03:51;;;;;;;22.08;10.90;;;;;;;1.66;100.00;100118.53;5075057;28;20044;-45
2024/01/08 11:06:22;;;;;;;24.85;11.60;;;;;;;1.90;100.00;100121.38;5075063;28;20072;-47
2024/01/08 11:08:52;;;;;;;24.42;11.75;;;;;;;2.05;100.00;100117.50;5074711;28;20146;-43
2024/01/08 11:11:21;;;;;;;20.35;11.00;;;;;;;2.12;100.00;100114.63;5074440;28;20126;-50
2024/01/08 11:13:50;;;;;;;19.65;10.43;;;;;;;2.35;100.00;100116.63;5075175;28;20136;-44
2024/01/08 11:16:24;;;;;;;19.92;10.38;;;;;;;2.34;100.00;100124.56;5076705;28;20055;-44
2024/01/08 11:19:12;;;;;;;21.40;10.68;;;;;;;2.49;100.00;100124.97;5077931;28;20101;-49
2024/01/08 11:21:43;;;;;;;18.10;10.13;;;;;;;2.19;100.00;100126.72;5074455;28;20096;-45